Time;durP1;ratioP1;P1;durP2;ratioP2;P2;SDS_P1;SDS_P2;PMS_P1;PMS_P2;Temp;Humidity;BMP_temperature;BMP_pressure;BME280_temperature;BME280_humidity;BME280_pressure;Samples;Min_cycle;Max_cycle;Signal;HPM_P1;HPM_P2
2021/06/20 00:00:13;;;;;;;12.07;8.02;;;;;;;15.45;97.18;101144.97;5133944;27;20039;-61
2021/06/20 00:02:42;;;;;;;14.63;7.78;;;;;;;15.46;97.51;101131.75;5118484;27;20524;-60
2021/06/20 00:05:13;;;;;;;19.25;9.43;;;;;;;15.44;97.72;101117.19;5116375;27;20442;-60
2021/06/20 00:07:43;;;;;;;17.88;9.65;;;;;;;15.41;97.92;101107.41;5133900;27;20039;-62
2021/06/20 00:10:13;;;;;;;16.73;8.90;;;;;;;15.39;98.06;101098.47;5133835;27;20133;-60
2021/06/20 00:12:42;;;;;;;14.52;8.80;;;;;;;15.38;98.45;101079.97;5134225;27;20096;-60
2021/06/20 00:15:12;;;;;;;19.70;9.25;;;;;;;15.36;98.55;101053.31;5133665;27;20055;-59
2021/06/20 00:17:41;;;;;;;16.53;8.03;;;;;;;15.33;98.91;101026.69;5125256;27;20126;-59
2021/06/20 00:20:12;;;;;;;19.10;9.50;;;;;;;15.34;99.32;101017.09;5133929;27;20084;-59
2021/06/20 00:22:40;;;;;;;14.40;8.27;;;;;;;15.33;99.61;101004.19;5133286;27;20072;-59
2021/06/20 00:25:10;;;;;;;15.52;8.43;;;;;;;15.30;99.87;100996.41;5134063;27;20075;-57
2021/06/20 00:27:38;;;;;;;13.98;7.60;;;;;;;15.29;100.00;100985.47;5133067;27;20562;-59
2021/06/20 00:30:09;;;;;;;18.95;8.00;;;;;;;15.28;100.00;100964.97;5133731;27;20079;-57
2021/06/20 00:32:37;;;;;;;17.35;7.45;;;;;;;15.27;100.00;100960.50;5133378;27;20108;-60
2021/06/20 00:35:06;;;;;;;12.15;5.45;;;;;;;15.28;100.00;100939.66;5133124;27;20062;-60
2021/06/20 00:37:34;;;;;;;14.73;5.35;;;;;;;15.29;100.00;100940.50;5133854;27;20058;-60
2021/06/20 00:40:03;;;;;;;15.02;6.30;;;;;;;15.29;100.00;100969.44;5119022;27;20043;-58
2021/06/20 00:42:32;;;;;;;9.77;6.13;;;;;;;15.29;100.00;100991.09;5133340;27;20127;-56
2021/06/20 00:45:00;;;;;;;14.70;5.90;;;;;;;15.27;100.00;101002.69;5119004;27;20092;-59
2021/06/20 00:47:27;;;;;;;22.40;6.50;;;;;;;15.30;100.00;100993.59;5133503;27;20125;-57
2021/06/20 00:49:55;;;;;;;13.27;5.75;;;;;;;15.31;100.00;100995.25;5132913;27;20039;-57
2021/06/20 00:52:23;;;;;;;24.15;7.72;;;;;;;15.30;100.00;100985.16;5133734;27;20086;-60
2021/06/20 00:54:51;;;;;;;18.48;6.30;;;;;;;15.28;100.00;100973.41;5133198;27;20597;-56
2021/06/20 00:57:21;;;;;;;12.43;5.95;;;;;;;15.28;100.00;100961.34;5133174;27;20074;-53
2021/06/20 00:59:51;;;;;;;18.33;6.68;;;;;;;15.25;100.00;100936.69;5133072;27;20071;-55
2021/06/20 01:02:21;;;;;;;12.15;5.90;;;;;;;15.20;100.00;100915.16;5133299;27;20496;-54
2021/06/20 01:04:51;;;;;;;14.48;5.43;;;;;;;15.15;100.00;100902.13;5132908;27;20217;-56
2021/06/20 01:07:21;;;;;;;12.48;5.80;;;;;;;15.10;100.00;100893.84;5133304;27;20111;-57
2021/06/20 01:09:50;;;;;;;20.75;6.00;;;;;;;15.05;100.00;100891.19;5132601;27;20092;-55
2021/06/20 01:12:19;;;;;;;8.68;5.00;;;;;;;14.99;100.00;100897.28;5132996;27;20051;-59
2021/06/20 01:14:48;;;;;;;7.40;4.15;;;;;;;14.93;100.00;100898.63;5133037;27;20039;-57
2021/06/20 01:17:19;;;;;;;10.68;4.85;;;;;;;14.90;100.00;100893.66;5132528;27;20070;-55
2021/06/20 01:19:47;;;;;;;12.48;5.97;;;;;;;14.83;100.00;100900.56;5124326;27;20043;-55
2021/06/20 01:22:26;;;;;;;12.68;5.30;;;;;;;14.78;100.00;100940.06;5132875;27;20055;-58
2021/06/20 01:24:56;;;;;;;13.00;6.05;;;;;;;14.74;100.00;100933.44;5123009;27;20369;-62
2021/06/20 01:27:26;;;;;;;9.80;5.00;;;;;;;14.74;100.00;100921.38;5132841;27;20134;-55
2021/06/20 01:29:53;;;;;;;9.52;4.85;;;;;;;14.73;100.00;100931.78;5132815;27;20408;-57
2021/06/20 01:32:21;;;;;;;7.38;3.85;;;;;;;14.69;100.00;100919.53;5132183;27;20134;-59
2021/06/20 01:34:49;;;;;;;7.00;3.90;;;;;;;14.68;100.00;100903.00;5132698;27;20043;-57
2021/06/20 01:37:18;;;;;;;8.63;3.75;;;;;;;14.66;100.00;100903.34;5132531;27;20074;-60
2021/06/20 01:39:48;;;;;;;7.15;4.32;;;;;;;14.63;100.00;100892.75;5132369;27;20561;-56
2021/06/20 01:42:17;;;;;;;8.10;4.30;;;;;;;14.60;100.00;100882.16;5132362;27;20085;-56
2021/06/20 01:44:53;;;;;;;9.98;3.95;;;;;;;14.61;100.00;100894.22;5131343;27;20564;-55
2021/06/20 01:47:23;;;;;;;6.63;3.60;;;;;;;14.58;100.00;100892.91;5132437;27;20051;-57
2021/06/20 01:49:52;;;;;;;7.97;3.50;;;;;;;14.58;100.00;100878.03;5132407;27;20457;-59
2021/06/20 01:52:20;;;;;;;7.78;3.70;;;;;;;14.55;100.00;100881.50;5131670;27;20118;-53
2021/06/20 01:54:51;;;;;;;6.93;2.95;;;;;;;14.54;100.00;100877.88;5132355;27;20108;-58
2021/06/20 01:57:20;;;;;;;7.78;2.65;;;;;;;14.53;100.00;100862.16;5132365;27;20088;-56
2021/06/20 01:59:49;;;;;;;6.03;2.80;;;;;;;14.56;100.00;100853.09;5132001;27;20503;-58
2021/06/20 02:02:16;;;;;;;6.80;2.80;;;;;;;14.54;100.00;100844.16;5130869;27;20135;-57
2021/06/20 02:04:45;;;;;;;5.63;2.83;;;;;;;14.54;100.00;100834.91;5132268;27;20134;-58
2021/06/20 02:07:13;;;;;;;5.80;2.90;;;;;;;14.53;100.00;100824.84;5131501;27;20070;-58
2021/06/20 02:09:41;;;;;;;6.38;2.63;;;;;;;14.50;100.00;100822.66;5132266;27;20065;-56
2021/06/20 02:12:12;;;;;;;5.28;2.53;;;;;;;14.49;100.00;100816.22;5131828;27;20555;-57
2021/06/20 02:14:41;;;;;;;5.00;2.53;;;;;;;14.47;100.00;100824.97;5130728;27;20043;-55
2021/06/20 02:17:19;;;;;;;6.22;2.35;;;;;;;14.47;100.00;100821.34;5131956;27;20063;-55
2021/06/20 02:19:47;;;;;;;8.70;2.72;;;;;;;14.44;100.00;100805.97;5132061;27;20042;-56
2021/06/20 02:22:16;;;;;;;6.10;2.30;;;;;;;14.43;100.00;100801.50;5131763;27;20388;-56
2021/06/20 02:24:44;;;;;;;7.80;2.60;;;;;;;14.43;100.00;100787.47;5131948;27;20051;-52
2021/06/20 02:27:14;;;;;;;6.95;2.20;;;;;;;14.39;100.00;100775.19;5131203;28;20104;-57
2021/06/20 02:29:43;;;;;;;7.03;2.15;;;;;;;14.35;100.00;100776.19;5131708;28;20039;-57
2021/06/20 02:32:12;;;;;;;6.00;2.05;;;;;;;14.33;100.00;100786.94;5131977;28;20104;-56
2021/06/20 02:34:42;;;;;;;6.80;2.15;;;;;;;14.30;100.00;100791.22;5131004;28;20039;-57
2021/06/20 02:37:12;;;;;;;6.43;2.30;;;;;;;14.29;100.00;100791.53;5131776;28;20130;-58
2021/06/20 02:39:40;;;;;;;6.45;2.40;;;;;;;14.27;100.00;100785.41;5131789;27;20078;-61
2021/06/20 02:42:09;;;;;;;4.60;2.13;;;;;;;14.23;100.00;100787.22;5131063;27;20055;-59
2021/06/20 02:44:39;;;;;;;6.15;1.90;;;;;;;14.20;100.00;100787.84;5132028;27;20055;-59
2021/06/20 02:47:07;;;;;;;6.40;2.50;;;;;;;14.19;100.00;100791.84;5131810;27;20147;-57
2021/06/20 02:49:38;;;;;;;6.60;2.10;;;;;;;14.18;100.00;100816.28;5130956;28;20037;-59
2021/06/20 02:52:08;;;;;;;8.23;2.35;;;;;;;14.18;100.00;100849.97;5131596;28;20085;-58
2021/06/20 02:54:37;;;;;;;4.90;1.95;;;;;;;14.19;100.00;100882.44;5121449;27;20143;-57
2021/06/20 02:57:06;;;;;;;3.88;1.83;;;;;;;14.21;100.00;100882.97;5135395;27;20177;-56
2021/06/20 02:59:34;;;;;;;10.57;2.30;;;;;;;14.23;100.00;100875.06;5135408;27;20039;-53
2021/06/20 03:02:03;;;;;;;6.60;2.00;;;;;;;14.26;100.00;100848.31;5135641;27;20092;-57
2021/06/20 03:04:31;;;;;;;7.70;2.05;;;;;;;14.25;100.00;100810.16;5132031;27;20043;-58
2021/06/20 03:06:59;;;;;;;6.15;2.15;;;;;;;14.24;100.00;100805.72;5124498;27;20094;-55
2021/06/20 03:09:27;;;;;;;6.43;2.08;;;;;;;14.22;100.00;100822.88;5135002;27;20051;-53
2021/06/20 03:11:55;;;;;;;8.02;2.10;;;;;;;14.22;100.00;100819.25;5135596;27;20126;-60
2021/06/20 03:14:22;;;;;;;6.93;1.98;;;;;;;14.22;100.00;100803.22;5135341;27;20088;-53
2021/06/20 03:16:50;;;;;;;5.03;1.75;;;;;;;14.21;100.00;100798.75;5134904;27;20040;-57
2021/06/20 03:19:20;;;;;;;4.57;1.65;;;;;;;14.20;100.00;100791.50;5135138;27;20568;-56
2021/06/20 03:21:48;;;;;;;4.20;1.63;;;;;;;14.19;100.00;100777.81;5129347;27;20042;-54
2021/06/20 03:24:15;;;;;;;4.88;1.75;;;;;;;14.18;100.00;100734.06;5134704;27;20070;-52
2021/06/20 03:26:43;;;;;;;8.02;2.22;;;;;;;14.16;100.00;100713.91;5134885;27;20393;-49
2021/06/20 03:29:11;;;;;;;5.63;1.77;;;;;;;14.13;100.00;100716.22;5134990;27;20829;-53
2021/06/20 03:31:39;;;;;;;5.38;1.60;;;;;;;14.11;100.00;100754.19;5134328;27;20091;-51
2021/06/20 03:34:07;;;;;;;6.32;1.55;;;;;;;14.10;100.00;100764.56;5134510;27;20095;-52
2021/06/20 03:36:36;;;;;;;5.90;1.67;;;;;;;14.10;100.00;100758.97;5134905;27;20040;-52
2021/06/20 03:39:05;;;;;;;5.05;1.60;;;;;;;14.10;100.00;100749.72;5134492;27;20096;-50
2021/06/20 03:41:33;;;;;;;4.40;1.70;;;;;;;14.06;100.00;100735.50;5134284;27;20063;-52
2021/06/20 03:44:01;;;;;;;4.00;1.35;;;;;;;14.06;100.00;100726.25;5134358;27;20495;-49
2021/06/20 03:46:29;;;;;;;3.70;1.50;;;;;;;14.06;100.00;100715.03;5133635;27;20054;-51
2021/06/20 03:48:57;;;;;;;5.30;1.50;;;;;;;14.05;100.00;100688.97;5134313;27;20057;-50
2021/06/20 03:51:25;;;;;;;5.68;1.70;;;;;;;14.05;100.00;100685.31;5134126;27;20051;-49
2021/06/20 03:53:54;;;;;;;4.40;1.50;;;;;;;14.05;100.00;100691.75;5134496;27;20408;-47
2021/06/20 03:56:22;;;;;;;4.85;1.40;;;;;;;14.04;100.00;100697.69;5134473;27;20104;-48
2021/06/20 03:58:50;;;;;;;5.28;2.00;;;;;;;14.03;100.00;100701.66;5134144;27;20058;-48
2021/06/20 04:01:18;;;;;;;4.00;1.35;;;;;;;14.02;100.00;100689.59;5134278;27;20059;-49
2021/06/20 04:03:46;;;;;;;6.20;1.42;;;;;;;14.02;100.00;100695.22;5134763;27;20117;-52
2021/06/20 04:06:14;;;;;;;7.30;1.83;;;;;;;14.03;100.00;100696.88;5132932;27;20077;-50
2021/06/20 04:08:42;;;;;;;5.00;1.45;;;;;;;14.04;100.00;100690.09;5134715;27;20067;-48
2021/06/20 04:11:12;;;;;;;5.80;1.60;;;;;;;14.06;100.00;100687.81;5134247;27;20046;-49
2021/06/20 04:13:39;;;;;;;7.55;1.80;;;;;;;14.07;100.00;100683.03;5133330;27;20460;-49
2021/06/20 04:16:07;;;;;;;5.93;1.75;;;;;;;14.08;100.00;100676.25;5134324;27;20081;-54
2021/06/20 04:18:35;;;;;;;4.65;1.88;;;;;;;14.08;100.00;100673.44;5134109;27;20121;-53
2021/06/20 04:21:03;;;;;;;5.65;1.83;;;;;;;14.08;100.00;100685.50;5133593;27;20039;-52
2021/06/20 04:23:31;;;;;;;2.17;0.98;;;;;;;14.09;100.00;100678.75;5134041;27;20830;-51
2021/06/20 04:25:59;;;;;;;3.83;1.50;;;;;;;14.10;100.00;100671.16;5133994;27;20078;-49
2021/06/20 04:28:28;;;;;;;5.40;1.60;;;;;;;14.10;100.00;100668.34;5133658;27;20483;-53
2021/06/20 04:30:57;;;;;;;8.13;1.50;;;;;;;14.09;100.00;100667.50;5133898;27;20062;-51
2021/06/20 04:33:25;;;;;;;8.70;1.92;;;;;;;14.07;100.00;100666.19;5128285;27;20369;-53
2021/06/20 04:35:53;;;;;;;7.60;1.80;;;;;;;14.05;100.00;100688.97;5133888;27;20078;-54
2021/06/20 04:38:21;;;;;;;5.22;1.30;;;;;;;14.04;100.00;100697.69;5133883;27;20063;-51
2021/06/20 04:40:51;;;;;;;4.80;1.30;;;;;;;14.06;100.00;100690.59;5133039;27;20047;-53
2021/06/20 04:43:38;;;;;;;4.85;1.30;;;;;;;14.07;100.00;100686.66;5134254;27;20566;-51
2021/06/20 04:46:22;;;;;;;6.97;1.30;;;;;;;14.08;100.00;100679.88;5133869;27;20078;-50
2021/06/20 04:48:50;;;;;;;5.07;1.10;;;;;;;14.10;100.00;100683.19;5133167;27;20043;-53
2021/06/20 04:51:18;;;;;;;5.13;1.63;;;;;;;14.14;100.00;100681.41;5133321;27;20043;-50
2021/06/20 04:53:46;;;;;;;4.97;1.30;;;;;;;14.19;100.00;100693.63;5133617;27;20466;-51
2021/06/20 04:56:14;;;;;;;7.07;1.80;;;;;;;14.22;100.00;100699.38;5132920;27;20058;-53
2021/06/20 04:58:42;;;;;;;4.30;1.30;;;;;;;14.28;100.00;100709.31;5133326;27;20126;-51
2021/06/20 05:01:11;;;;;;;6.05;1.38;;;;;;;14.34;100.00;100724.03;5133205;27;20460;-52
2021/06/20 05:03:39;;;;;;;6.82;1.55;;;;;;;14.41;100.00;100727.19;5132510;27;20043;-51
2021/06/20 05:06:07;;;;;;;5.97;1.40;;;;;;;14.51;100.00;100728.84;5133604;27;20070;-51
2021/06/20 05:08:36;;;;;;;10.98;1.60;;;;;;;14.59;100.00;100734.47;5132883;27;20134;-52
2021/06/20 05:11:04;;;;;;;6.63;1.40;;;;;;;14.67;100.00;100733.66;5132945;27;20092;-49
2021/06/20 05:13:32;;;;;;;7.55;1.80;;;;;;;14.74;100.00;100735.97;5132762;27;20494;-52
2021/06/20 05:16:00;;;;;;;6.65;1.48;;;;;;;14.83;100.00;100742.41;5132683;27;20158;-50
2021/06/20 05:18:29;;;;;;;6.82;1.60;;;;;;;14.93;100.00;100749.69;5132682;27;20039;-50
2021/06/20 05:20:57;;;;;;;5.43;1.27;;;;;;;15.03;100.00;100757.78;5132873;27;20036;-52
2021/06/20 05:23:25;;;;;;;7.78;1.55;;;;;;;15.12;100.00;100758.59;5132618;27;20043;-50
2021/06/20 05:25:54;;;;;;;9.32;1.63;;;;;;;15.18;100.00;100748.84;5132640;27;20070;-50
2021/06/20 05:28:22;;;;;;;8.23;2.45;;;;;;;15.25;100.00;100760.41;5132650;27;20082;-51
2021/06/20 05:30:50;;;;;;;7.03;1.63;;;;;;;15.29;100.00;100758.56;5131768;27;20085;-51
2021/06/20 05:33:19;;;;;;;4.47;1.60;;;;;;;15.31;100.00;100747.81;5132932;27;20046;-51
2021/06/20 05:35:49;;;;;;;6.28;1.90;;;;;;;15.32;100.00;100746.66;5132626;27;20082;-48
2021/06/20 05:38:17;;;;;;;4.35;1.38;;;;;;;15.34;100.00;100747.16;5132129;27;20518;-50
2021/06/20 05:40:45;;;;;;;5.78;1.27;;;;;;;15.37;100.00;100740.88;5132598;27;20067;-49
2021/06/20 05:43:13;;;;;;;4.80;1.38;;;;;;;15.41;100.00;100741.84;5132381;27;20039;-48
2021/06/20 05:45:41;;;;;;;4.53;1.23;;;;;;;15.44;100.00;100741.16;5131645;27;20074;-50
2021/06/20 05:48:09;;;;;;;4.65;1.55;;;;;;;15.49;100.00;100731.72;5132474;27;20051;-52
2021/06/20 05:50:40;;;;;;;4.80;1.30;;;;;;;15.49;100.00;100728.91;5132466;27;20050;-50
2021/06/20 05:53:09;;;;;;;3.97;1.20;;;;;;;15.58;100.00;100732.56;5131825;27;20035;-49
2021/06/20 05:55:37;;;;;;;4.03;1.27;;;;;;;15.70;100.00;100727.06;5120341;27;20464;-49
2021/06/20 05:58:05;;;;;;;7.63;1.35;;;;;;;15.84;100.00;100724.84;5131699;27;20169;-49
2021/06/20 06:00:33;;;;;;;4.82;1.30;;;;;;;15.93;100.00;100701.47;5132143;27;20043;-48
2021/06/20 06:03:01;;;;;;;3.65;1.20;;;;;;;15.95;100.00;100716.88;5129072;27;20051;-49
2021/06/20 06:05:29;;;;;;;6.63;1.58;;;;;;;15.93;100.00;100709.91;5125550;27;20073;-53
2021/06/20 06:07:57;;;;;;;4.90;1.30;;;;;;;15.96;100.00;100723.31;5124370;27;20047;-51
2021/06/20 06:10:28;;;;;;;5.60;1.25;;;;;;;16.11;100.00;100725.53;5125033;27;20508;-51
2021/06/20 06:12:56;;;;;;;6.43;1.90;;;;;;;16.28;100.00;100724.63;5124130;27;20571;-49
2021/06/20 06:15:25;;;;;;;5.70;1.40;;;;;;;16.47;100.00;100733.44;5123786;27;20051;-50
2021/06/20 06:17:53;;;;;;;5.97;1.20;;;;;;;16.65;100.00;100746.25;5126239;27;20415;-50
2021/06/20 06:20:21;;;;;;;6.85;1.48;;;;;;;16.81;100.00;100752.91;5121063;27;20112;-51
2021/06/20 06:22:50;;;;;;;5.65;1.60;;;;;;;16.94;100.00;100761.47;5125898;27;20071;-48
2021/06/20 06:25:18;;;;;;;5.93;1.58;;;;;;;17.08;100.00;100756.34;5122829;27;20096;-51
2021/06/20 06:27:47;;;;;;;7.57;1.33;;;;;;;17.26;100.00;100749.38;5124384;28;20487;-50
2021/06/20 06:30:16;;;;;;;4.88;1.23;;;;;;;17.37;100.00;100742.13;5130056;27;20484;-50
2021/06/20 06:32:46;;;;;;;6.93;1.63;;;;;;;17.49;100.00;100730.88;5129376;27;20043;-49
2021/06/20 06:35:14;;;;;;;5.35;1.40;;;;;;;17.60;100.00;100731.25;5124288;27;20101;-48
2021/06/20 06:37:43;;;;;;;6.93;1.40;;;;;;;17.61;100.00;100740.53;5132870;27;20403;-50
2021/06/20 06:40:13;;;;;;;6.40;1.60;;;;;;;17.59;100.00;100740.88;5131958;27;20142;-50
2021/06/20 06:42:41;;;;;;;8.25;1.85;;;;;;;17.61;100.00;100752.63;5126296;27;20044;-50
2021/06/20 06:45:11;;;;;;;8.73;1.70;;;;;;;17.67;100.00;100758.94;5127634;27;20054;-50
2021/06/20 06:47:39;;;;;;;5.20;1.58;;;;;;;17.85;100.00;100749.06;5132105;27;20091;-50
2021/06/20 06:50:09;;;;;;;6.15;1.25;;;;;;;18.05;99.43;100756.63;5127803;27;20198;-51
2021/06/20 06:52:36;;;;;;;6.47;1.25;;;;;;;18.28;99.19;100759.81;5132729;27;20092;-52
2021/06/20 06:55:09;;;;;;;5.18;1.92;;;;;;;18.54;98.61;100759.44;5129196;27;20448;-49
2021/06/20 06:57:38;;;;;;;6.70;1.98;;;;;;;18.79;97.68;100766.69;5132352;27;20073;-49
2021/06/20 07:00:11;;;;;;;;;;;;;;;18.87;96.41;100770.59;5128722;27;20047;-49
2021/06/20 07:02:40;;;;;;;7.20;1.48;;;;;;;19.06;96.17;100773.59;5130154;27;19919;-50
2021/06/20 07:05:09;;;;;;;8.45;1.55;;;;;;;19.27;95.33;100779.03;5130711;27;20051;-51
2021/06/20 07:07:37;;;;;;;6.90;1.25;;;;;;;19.48;94.53;100787.31;5132475;27;20061;-51
2021/06/20 07:10:06;;;;;;;5.72;1.42;;;;;;;19.59;92.89;100782.81;5128500;27;20047;-53
2021/06/20 07:12:34;;;;;;;6.03;1.50;;;;;;;19.70;92.21;100785.94;5131822;27;20077;-51
2021/06/20 07:15:04;;;;;;;7.30;1.27;;;;;;;19.82;91.19;100797.19;5128834;27;20043;-50
2021/06/20 07:17:34;;;;;;;6.32;1.52;;;;;;;19.99;90.72;100808.16;5128995;27;20102;-51
2021/06/20 07:20:06;;;;;;;5.53;1.30;;;;;;;20.18;89.81;100830.94;5132401;27;20047;-50
2021/06/20 07:22:34;;;;;;;6.53;1.40;;;;;;;20.21;88.24;100837.88;5126501;27;20125;-47
2021/06/20 07:25:03;;;;;;;5.28;1.58;;;;;;;20.03;87.40;100845.09;5132292;27;20046;-51
2021/06/20 07:27:31;;;;;;;6.45;1.40;;;;;;;19.78;87.00;100841.59;5130258;27;20420;-51
2021/06/20 07:29:59;;;;;;;5.15;1.50;;;;;;;19.57;87.10;100851.13;5128890;27;20527;-48
2021/06/20 07:32:26;;;;;;;7.88;1.50;;;;;;;19.44;86.81;100851.50;5125888;27;20411;-48
2021/06/20 07:34:55;;;;;;;6.72;1.70;;;;;;;19.30;86.68;100854.72;5132163;27;20086;-48
2021/06/20 07:37:23;;;;;;;6.43;1.75;;;;;;;19.17;86.40;100851.13;5126461;27;20131;-47
2021/06/20 07:39:51;;;;;;;8.35;1.75;;;;;;;19.09;86.50;100859.72;5131941;27;20127;-51
2021/06/20 07:42:19;;;;;;;8.40;1.75;;;;;;;19.02;86.54;100865.16;5128367;27;20565;-47
2021/06/20 07:44:47;;;;;;;4.55;1.50;;;;;;;18.92;86.57;100872.97;5119029;27;20378;-47
2021/06/20 07:47:15;;;;;;;4.53;1.60;;;;;;;18.81;86.43;100874.59;5123431;27;20138;-50
2021/06/20 07:49:43;;;;;;;4.70;1.70;;;;;;;18.68;86.33;100884.28;5122193;27;20473;-48
2021/06/20 07:52:12;;;;;;;6.28;2.22;;;;;;;18.53;86.01;100882.13;5122676;27;20135;-50
2021/06/20 07:54:42;;;;;;;6.18;2.08;;;;;;;18.43;86.58;100885.41;5126374;27;20484;-48
2021/06/20 07:57:10;;;;;;;8.45;2.35;;;;;;;18.38;86.41;100892.13;5125010;27;20043;-48
2021/06/20 07:59:38;;;;;;;6.38;2.10;;;;;;;18.35;86.82;100895.66;5126701;27;20075;-53
2021/06/20 08:02:06;;;;;;;6.25;1.98;;;;;;;18.32;86.32;100898.34;5124021;27;20067;-52
2021/06/20 08:04:34;;;;;;;5.63;1.88;;;;;;;18.25;86.18;100899.75;5125671;27;20039;-52
2021/06/20 08:07:02;;;;;;;6.35;1.75;;;;;;;18.20;86.22;100902.78;5125941;27;20051;-48
2021/06/20 08:09:32;;;;;;;6.72;1.80;;;;;;;18.19;86.23;100897.50;5124346;27;20058;-50
2021/06/20 08:12:00;;;;;;;4.13;1.63;;;;;;;18.20;86.58;100888.66;5132542;27;20047;-48
2021/06/20 08:14:28;;;;;;;5.82;1.77;;;;;;;18.27;86.58;100893.75;5128185;27;20097;-49
2021/06/20 08:16:57;;;;;;;5.47;1.67;;;;;;;18.36;86.21;100890.84;5125188;27;20092;-48
2021/06/20 08:19:25;;;;;;;7.22;1.75;;;;;;;18.40;85.75;100900.22;5123339;27;20047;-51
2021/06/20 08:21:53;;;;;;;9.18;2.08;;;;;;;18.36;85.33;100896.47;5127067;27;20096;-51
2021/06/20 08:24:21;;;;;;;9.65;2.00;;;;;;;18.29;84.99;100901.88;5121695;27;20130;-53
2021/06/20 08:26:50;;;;;;;8.82;2.10;;;;;;;18.19;85.31;100898.31;5126624;27;20403;-52
2021/06/20 08:29:18;;;;;;;5.30;1.70;;;;;;;18.13;85.65;100902.56;5127405;27;20415;-48
2021/06/20 08:31:46;;;;;;;6.25;1.95;;;;;;;18.05;85.72;100900.63;5123691;27;20436;-51
2021/06/20 08:34:14;;;;;;;7.28;1.60;;;;;;;17.94;85.62;100905.09;5123589;27;20404;-52
2021/06/20 08:36:42;;;;;;;5.88;1.65;;;;;;;17.85;85.55;100902.34;5128289;27;20044;-51
2021/06/20 08:39:10;;;;;;;4.50;1.38;;;;;;;17.77;85.58;100893.97;5123860;27;20523;-49
2021/06/20 08:41:40;;;;;;;6.30;1.77;;;;;;;17.72;86.10;100908.28;5127658;27;20044;-50
2021/06/20 08:44:17;;;;;;;7.55;1.95;;;;;;;17.65;86.04;100913.66;5127331;27;20051;-48
2021/06/20 08:46:46;;;;;;;6.50;1.80;;;;;;;17.58;86.22;100912.19;5122407;27;20067;-52
2021/06/20 08:49:14;;;;;;;8.50;1.88;;;;;;;17.57;86.55;100912.56;5127405;27;20043;-50
2021/06/20 08:51:46;;;;;;;8.40;2.20;;;;;;;17.54;86.45;100907.59;5127563;27;20092;-47
2021/06/20 08:54:14;;;;;;;;;;;;;;;17.43;86.02;100917.63;5116861;27;20135;-47
2021/06/20 08:56:42;;;;;;;6.05;1.60;;;;;;;17.48;87.37;100921.06;5128286;27;19949;-49
2021/06/20 08:59:12;;;;;;;7.22;2.05;;;;;;;17.56;86.81;100919.38;5123101;27;20055;-51
2021/06/20 09:01:42;;;;;;;7.95;2.50;;;;;;;17.59;86.44;100915.81;5125931;27;20487;-52
2021/06/20 09:04:13;;;;;;;6.47;2.20;;;;;;;17.59;86.53;100907.38;5129867;27;20051;-50
2021/06/20 09:06:52;;;;;;;5.47;1.92;;;;;;;17.54;86.50;100913.25;5125997;27;20473;-48
2021/06/20 09:09:30;;;;;;;7.72;2.08;;;;;;;17.51;86.64;100930.84;5125963;27;20039;-51
2021/06/20 09:12:09;;;;;;;4.93;1.92;;;;;;;17.45;86.83;100932.22;5126748;27;20104;-50
2021/06/20 09:14:43;;;;;;;6.22;1.95;;;;;;;17.44;86.89;100936.22;5124158;27;20051;-52
2021/06/20 09:17:13;;;;;;;5.65;2.10;;;;;;;17.43;87.34;100937.38;5125412;27;20071;-48
2021/06/20 09:19:41;;;;;;;5.78;2.20;;;;;;;17.39;86.72;100939.22;5125431;27;20065;-49
2021/06/20 09:22:10;;;;;;;6.95;2.03;;;;;;;17.30;86.51;100952.59;5123169;27;20047;-49
2021/06/20 09:24:40;;;;;;;6.57;2.17;;;;;;;17.21;86.65;100967.56;5120365;27;20047;-48
2021/06/20 09:27:08;;;;;;;4.43;1.83;;;;;;;17.12;86.30;100977.25;5126559;27;20052;-45
2021/06/20 09:29:40;;;;;;;6.20;2.15;;;;;;;17.08;86.34;100981.91;5122731;27;20035;-46
2021/06/20 09:32:10;;;;;;;5.90;2.08;;;;;;;17.06;86.60;100982.25;5124561;27;20158;-52
2021/06/20 09:34:44;;;;;;;7.80;2.40;;;;;;;17.06;86.69;100987.88;5115654;27;20043;-46
2021/06/20 09:37:13;;;;;;;6.35;2.40;;;;;;;17.09;87.05;100987.22;5118526;27;20086;-48
2021/06/20 09:39:41;;;;;;;5.78;2.15;;;;;;;17.12;86.87;100986.53;5123720;27;20051;-46
2021/06/20 09:42:11;;;;;;;5.78;2.20;;;;;;;17.16;86.82;100995.16;5123980;27;20076;-47
2021/06/20 09:44:41;;;;;;;8.93;2.35;;;;;;;17.17;86.93;100996.81;5126226;27;20039;-50
2021/06/20 09:47:11;;;;;;;8.52;2.33;;;;;;;17.17;87.03;101005.25;5120267;27;20043;-47
2021/06/20 09:49:48;;;;;;;7.35;2.50;;;;;;;17.18;87.50;101006.91;5122732;27;20047;-50
2021/06/20 09:52:26;;;;;;;7.85;2.47;;;;;;;17.17;87.43;101010.91;5119378;27;20059;-47
2021/06/20 09:54:58;;;;;;;7.05;2.38;;;;;;;17.11;87.56;101009.44;5120823;27;20440;-46
2021/06/20 09:57:27;;;;;;;7.88;2.53;;;;;;;17.08;87.86;101008.13;5126400;27;20460;-48
2021/06/20 09:59:56;;;;;;;10.13;2.83;;;;;;;17.07;88.10;101019.72;5122801;27;20096;-46
2021/06/20 10:02:26;;;;;;;7.10;2.50;;;;;;;17.04;88.24;101023.22;5120343;27;20077;-47
2021/06/20 10:04:55;;;;;;;9.15;2.60;;;;;;;17.02;88.36;101015.09;5124879;27;20076;-47
2021/06/20 10:07:27;;;;;;;8.85;3.20;;;;;;;17.06;88.70;101012.44;5121283;27;20519;-49
2021/06/20 10:09:58;;;;;;;7.43;3.00;;;;;;;17.08;88.63;101012.94;5125742;27;20036;-48
2021/06/20 10:12:27;;;;;;;5.55;2.58;;;;;;;17.16;88.84;100997.97;5124124;27;20496;-49
2021/06/20 10:14:57;;;;;;;8.77;2.50;;;;;;;17.37;88.67;100990.38;5120076;27;20441;-50
2021/06/20 10:17:30;;;;;;;8.15;2.80;;;;;;;17.54;87.81;100986.59;5122398;27;20067;-49
2021/06/20 10:20:04;;;;;;;6.40;2.60;;;;;;;17.62;87.58;100998.97;5115954;27;20071;-49
2021/06/20 10:22:36;;;;;;;7.88;2.38;;;;;;;17.71;86.99;100996.97;5120869;27;20070;-48
2021/06/20 10:25:08;;;;;;;9.43;2.42;;;;;;;17.81;86.47;100999.34;5121461;27;20475;-49
2021/06/20 10:27:39;;;;;;;8.57;2.80;;;;;;;17.88;86.25;100997.63;5126627;27;20131;-50
2021/06/20 10:30:10;;;;;;;7.32;2.53;;;;;;;17.90;85.43;101012.25;5121449;28;20096;-48
2021/06/20 10:32:40;;;;;;;7.38;2.40;;;;;;;17.96;85.79;101012.88;5123253;28;20063;-49
2021/06/20 10:35:15;;;;;;;6.05;2.60;;;;;;;18.09;85.55;101014.56;5125212;27;20527;-49
2021/06/20 10:37:45;;;;;;;5.13;2.20;;;;;;;18.20;84.95;101021.44;5120831;28;20547;-48
2021/06/20 10:40:22;;;;;;;7.38;2.58;;;;;;;18.28;84.15;101024.53;5125517;27;20043;-49
2021/06/20 10:42:53;;;;;;;7.43;2.63;;;;;;;18.37;84.13;101028.09;5123937;28;20051;-54
2021/06/20 10:45:33;;;;;;;7.47;2.70;;;;;;;18.38;83.30;101029.75;5123813;27;20449;-50
2021/06/20 10:48:13;;;;;;;6.88;2.60;;;;;;;18.34;82.72;101037.28;5124177;28;20633;-49
2021/06/20 10:50:45;;;;;;;6.15;2.13;;;;;;;18.28;82.25;101050.78;5118086;28;20134;-53
2021/06/20 10:53:13;;;;;;;8.63;2.55;;;;;;;18.24;82.60;101050.63;5119771;28;20051;-53
2021/06/20 10:55:44;;;;;;;8.13;2.40;;;;;;;18.23;82.27;101042.50;5119018;28;20118;-51
2021/06/20 10:58:17;;;;;;;4.60;2.25;;;;;;;18.21;82.15;101044.84;5122367;28;20930;-50
2021/06/20 11:00:45;;;;;;;7.53;2.42;;;;;;;18.18;82.03;101049.22;5120763;28;20180;-52
2021/06/20 11:03:16;;;;;;;7.50;2.70;;;;;;;18.15;81.56;101052.72;5121560;28;20593;-54
2021/06/20 11:05:51;;;;;;;6.20;2.33;;;;;;;18.10;82.22;101055.75;5124015;28;20515;-51
2021/06/20 11:08:33;;;;;;;7.53;2.20;;;;;;;18.07;82.12;101056.44;5120469;27;20047;-54
2021/06/20 11:11:12;;;;;;;5.88;2.30;;;;;;;18.03;81.97;101054.66;5124492;28;20050;-51
2021/06/20 11:13:43;;;;;;;4.97;2.40;;;;;;;18.01;81.82;101057.81;5122001;27;20039;-48
2021/06/20 11:16:13;;;;;;;6.13;2.20;;;;;;;17.99;82.09;101054.50;5125243;27;20488;-49
2021/06/20 11:18:42;;;;;;;6.47;2.13;;;;;;;17.96;82.08;101055.22;5127597;27;20059;-49
2021/06/20 11:21:13;;;;;;;4.95;1.95;;;;;;;17.94;81.93;101051.09;5126457;27;20407;-54
2021/06/20 11:23:46;;;;;;;4.65;1.83;;;;;;;17.94;81.66;101053.91;5125391;27;20039;-53
2021/06/20 11:26:15;;;;;;;6.97;2.08;;;;;;;17.98;81.22;101058.53;5128632;27;20039;-51
2021/06/20 11:28:43;;;;;;;7.30;2.47;;;;;;;18.07;81.35;101053.63;5124921;27;20541;-51